createdAt,value
2018-09-01T00:00:28.379Z,64.03
2018-09-01T00:02:56.406Z,76.93
2018-09-01T00:05:24.438Z,63.90
2018-09-01T00:07:52.462Z,72.00
2018-09-01T00:10:20.473Z,71.43
2018-09-01T00:12:48.487Z,69.73
2018-09-01T00:15:16.486Z,69.77
2018-09-01T00:17:44.490Z,67.67
2018-09-01T00:20:12.501Z,74.33
2018-09-01T00:22:40.521Z,64.33
2018-09-01T00:25:08.525Z,67.37
2018-09-01T00:27:36.539Z,69.63
2018-09-01T00:30:04.574Z,69.03
2018-09-01T00:32:32.594Z,78.27
2018-09-01T00:35:00.615Z,63.50
2018-09-01T00:37:33.995Z,66.30
2018-09-01T00:40:01.994Z,62.07
2018-09-01T00:42:29.983Z,72.57
2018-09-01T00:44:57.987Z,68.03
2018-09-01T00:47:26.042Z,56.33
2018-09-01T00:49:54.089Z,65.53
2018-09-01T00:52:22.088Z,58.37
2018-09-01T00:54:50.078Z,59.03
2018-09-01T00:57:18.087Z,61.07
2018-09-01T00:59:46.103Z,54.80
2018-09-01T01:02:14.094Z,51.77
2018-09-01T01:04:42.090Z,59.00
2018-09-01T01:07:10.214Z,62.80
2018-09-01T01:09:38.218Z,59.33
2018-09-01T01:12:06.223Z,52.70
2018-09-01T01:14:34.214Z,55.70
2018-09-01T01:17:02.222Z,58.47
2018-09-01T01:19:30.223Z,61.90
2018-09-01T01:21:58.218Z,58.37
2018-09-01T01:24:26.218Z,65.30
2018-09-01T01:26:55.474Z,60.47
2018-09-01T01:29:24.467Z,57.40
2018-09-01T01:31:52.848Z,55.90
2018-09-01T01:34:21.125Z,66.03
2018-09-01T01:36:49.194Z,63.53
2018-09-01T01:39:17.210Z,65.30
2018-09-01T01:41:45.206Z,56.10
2018-09-01T01:44:13.615Z,60.90
2018-09-01T01:46:41.637Z,64.40
2018-09-01T01:49:09.771Z,61.93
2018-09-01T01:51:37.871Z,69.00
2018-09-01T01:54:06.004Z,59.43
2018-09-01T01:56:34.023Z,59.53
2018-09-01T01:59:02.039Z,59.60
2018-09-01T02:01:30.035Z,63.63
2018-09-01T02:03:58.026Z,62.27
2018-09-01T02:06:27.315Z,71.57
2018-09-01T02:08:55.374Z,69.03
2018-09-01T02:11:23.369Z,73.30
2018-09-01T02:13:51.490Z,57.00
2018-09-01T02:16:19.558Z,50.27
2018-09-01T02:18:47.570Z,51.00
2018-09-01T02:21:15.575Z,58.70
2018-09-01T02:23:43.559Z,60.30
2018-09-01T02:26:11.541Z,56.67
2018-09-01T02:28:39.719Z,60.40
2018-09-01T02:31:07.706Z,49.27
2018-09-01T02:33:35.699Z,50.23
2018-09-01T02:36:03.756Z,63.23
2018-09-01T02:38:31.735Z,55.03
2018-09-01T02:40:59.725Z,52.13
2018-09-01T02:43:27.713Z,49.60
2018-09-01T02:45:56.759Z,44.97
2018-09-01T02:48:24.750Z,49.37
2018-09-01T02:50:52.770Z,57.50
2018-09-01T02:53:20.762Z,51.63
2018-09-01T02:55:48.759Z,48.43
2018-09-01T02:58:16.763Z,41.60
2018-09-01T03:00:44.787Z,51.77
2018-09-01T03:03:12.790Z,43.80
2018-09-01T03:05:40.815Z,41.20
2018-09-01T03:08:08.801Z,42.83
2018-09-01T03:10:36.814Z,36.57
2018-09-01T03:13:04.821Z,45.13
2018-09-01T03:15:32.838Z,41.90
2018-09-01T03:18:00.843Z,50.00
2018-09-01T03:20:28.846Z,37.73
2018-09-01T03:22:56.862Z,41.63
2018-09-01T03:25:24.859Z,38.13
2018-09-01T03:27:52.858Z,37.20
2018-09-01T03:30:20.873Z,41.97
2018-09-01T03:32:48.882Z,32.47
2018-09-01T03:35:16.944Z,42.77
2018-09-01T03:37:44.910Z,44.10
2018-09-01T03:40:12.923Z,42.37
2018-09-01T03:42:40.998Z,46.77
2018-09-01T03:45:09.017Z,31.90
2018-09-01T03:47:37.039Z,42.53
2018-09-01T03:50:05.303Z,37.17
2018-09-01T03:52:33.317Z,37.00
2018-09-01T03:55:01.410Z,38.60
2018-09-01T03:57:29.434Z,43.70
2018-09-01T03:59:57.449Z,42.40
2018-09-01T04:02:25.473Z,36.00
2018-09-01T04:04:53.484Z,44.87
2018-09-01T04:07:21.506Z,41.93
2018-09-01T04:09:49.515Z,37.93
2018-09-01T04:12:17.538Z,50.73
2018-09-01T04:14:45.542Z,35.40
2018-09-01T04:17:13.563Z,48.20
2018-09-01T04:19:41.578Z,49.33
2018-09-01T04:22:09.590Z,44.60
2018-09-01T04:24:37.657Z,44.10
2018-09-01T04:27:05.690Z,60.07
2018-09-01T04:29:33.703Z,39.60
2018-09-01T04:32:01.821Z,42.13
2018-09-01T04:34:29.768Z,40.70
2018-09-01T04:36:57.801Z,38.07
2018-09-01T04:39:25.812Z,37.20
2018-09-01T04:41:53.841Z,42.20
2018-09-01T04:44:21.867Z,48.47
2018-09-01T04:46:49.952Z,44.57
2018-09-01T04:49:17.919Z,38.10
2018-09-01T04:51:45.935Z,40.40
2018-09-01T04:54:13.959Z,53.50
2018-09-01T04:56:41.971Z,40.77
2018-09-01T04:59:10.000Z,35.27
2018-09-01T05:01:38.091Z,35.27
2018-09-01T05:04:06.110Z,43.00
2018-09-01T05:06:34.120Z,40.10
2018-09-01T05:09:02.167Z,33.67
2018-09-01T05:11:30.183Z,44.40
2018-09-01T05:13:58.207Z,40.90
2018-09-01T05:16:26.223Z,31.57
2018-09-01T05:18:54.591Z,38.60
2018-09-01T05:21:22.603Z,29.97
2018-09-01T05:23:50.712Z,31.90
2018-09-01T05:26:18.650Z,30.53
2018-09-01T05:28:46.676Z,32.23
2018-09-01T05:31:14.666Z,29.23
2018-09-01T05:33:42.694Z,29.00
2018-09-01T05:36:10.700Z,26.70
2018-09-01T05:38:38.873Z,27.37
2018-09-01T05:41:06.918Z,29.80
2018-09-01T05:43:34.942Z,26.57
2018-09-01T05:46:02.922Z,32.10
2018-09-01T05:48:30.943Z,29.63
2018-09-01T05:50:58.967Z,31.77
2018-09-01T05:53:26.974Z,28.30
2018-09-01T05:55:54.983Z,22.43
2018-09-01T05:58:22.989Z,25.27
2018-09-01T06:00:51.308Z,27.40
2018-09-01T06:03:19.342Z,29.87
2018-09-01T06:05:48.179Z,27.97
2018-09-01T06:08:16.646Z,27.90
2018-09-01T06:10:44.665Z,28.63
2018-09-01T06:13:12.683Z,36.60
2018-09-01T06:15:43.395Z,30.97
2018-09-01T06:18:11.519Z,33.03
2018-09-01T06:20:39.545Z,28.13
2018-09-01T06:23:07.631Z,26.57
2018-09-01T06:25:35.654Z,21.33
2018-09-01T06:28:08.598Z,31.90
2018-09-01T06:30:39.301Z,25.27
2018-09-01T06:33:07.339Z,25.53
2018-09-01T06:35:35.363Z,29.10
2018-09-01T06:38:03.568Z,31.67
2018-09-01T06:40:31.577Z,18.97
2018-09-01T06:42:59.679Z,21.40
2018-09-01T06:45:27.638Z,23.40
2018-09-01T06:48:02.817Z,18.20
2018-09-01T06:50:31.095Z,21.77
2018-09-01T06:52:59.151Z,21.33
2018-09-01T06:55:27.219Z,19.63
2018-09-01T06:57:55.315Z,21.40
2018-09-01T07:00:29.599Z,24.00
2018-09-01T07:02:57.655Z,17.50
2018-09-01T07:05:26.073Z,15.70
2018-09-01T07:07:54.127Z,17.57
2018-09-01T07:10:22.412Z,16.97
2018-09-01T07:12:52.702Z,15.07
2018-09-01T07:15:20.788Z,14.50
2018-09-01T07:17:48.847Z,15.43
2018-09-01T07:20:17.028Z,11.23
2018-09-01T07:22:45.064Z,15.63
2018-09-01T07:25:13.107Z,13.40
2018-09-01T07:27:41.314Z,12.50
2018-09-01T07:30:09.968Z,13.93
2018-09-01T07:32:38.029Z,12.93
2018-09-01T07:35:06.094Z,9.10
2018-09-01T07:37:34.136Z,14.90
2018-09-01T07:40:02.236Z,14.67
2018-09-01T07:42:30.319Z,11.37
2018-09-01T07:44:58.416Z,8.97
2018-09-01T07:47:26.512Z,9.07
2018-09-01T07:49:54.765Z,15.37
2018-09-01T07:52:22.785Z,11.50
2018-09-01T07:54:50.840Z,12.57
2018-09-01T07:57:18.959Z,8.83
2018-09-01T07:59:47.044Z,7.73
2018-09-01T08:02:15.104Z,11.63
2018-09-01T08:04:43.442Z,10.80
2018-09-01T08:07:11.693Z,9.43
2018-09-01T08:09:40.151Z,9.10
2018-09-01T08:12:08.412Z,10.10
2018-09-01T08:14:36.922Z,10.10
2018-09-01T08:17:05.035Z,12.60
2018-09-01T08:19:33.209Z,10.20
2018-09-01T08:22:01.248Z,15.27
2018-09-01T08:24:29.448Z,11.23
2018-09-01T08:26:57.615Z,9.00
2018-09-01T08:29:26.019Z,9.30
2018-09-01T08:31:54.091Z,14.00
2018-09-01T08:34:22.204Z,12.63
2018-09-01T08:36:50.346Z,10.97
2018-09-01T08:39:18.443Z,10.23
2018-09-01T08:41:46.554Z,14.93
2018-09-01T08:44:14.778Z,9.00
2018-09-01T08:46:42.925Z,8.13
2018-09-01T08:49:11.086Z,9.23
2018-09-01T08:51:39.134Z,9.30
2018-09-01T08:54:07.250Z,8.27
2018-09-01T08:56:35.600Z,8.67
2018-09-01T08:59:03.560Z,10.30
2018-09-01T09:01:31.624Z,10.80
2018-09-01T09:03:59.667Z,8.63
2018-09-01T09:06:27.707Z,9.70
2018-09-01T09:08:55.731Z,8.40
2018-09-01T09:11:23.932Z,9.23
2018-09-01T09:13:52.108Z,9.17
2018-09-01T09:16:20.155Z,8.40
2018-09-01T09:18:48.196Z,7.30
2018-09-01T09:21:16.276Z,6.80
2018-09-01T09:23:44.314Z,10.10
2018-09-01T09:26:12.539Z,8.40
2018-09-01T09:28:40.642Z,8.37
2018-09-01T09:31:11.053Z,9.80
2018-09-01T09:33:39.091Z,9.17
2018-09-01T09:36:07.341Z,7.83
2018-09-01T09:38:35.373Z,7.77
2018-09-01T09:41:03.966Z,9.20
2018-09-01T09:43:32.007Z,8.60
2018-09-01T09:46:00.067Z,9.70
2018-09-01T09:48:28.223Z,10.73
2018-09-01T09:50:56.316Z,8.90
2018-09-01T09:53:24.416Z,9.17
2018-09-01T09:55:52.519Z,7.20
2018-09-01T09:58:23.185Z,7.23
2018-09-01T10:01:04.002Z,8.60
2018-09-01T10:03:32.720Z,12.80
2018-09-01T10:06:00.888Z,9.23
2018-09-01T10:08:29.069Z,8.27
2018-09-01T10:10:57.250Z,16.73
2018-09-01T10:13:25.354Z,10.40
2018-09-01T10:15:53.569Z,8.60
2018-09-01T10:18:21.704Z,10.77
2018-09-01T10:20:50.568Z,13.60
2018-09-01T10:23:18.616Z,9.50
2018-09-01T10:25:49.167Z,8.10
2018-09-01T10:28:17.332Z,7.97
2018-09-01T10:30:45.462Z,8.57
2018-09-01T10:33:13.694Z,13.13
2018-09-01T10:35:41.802Z,12.60
2018-09-01T10:38:09.940Z,8.10
2018-09-01T10:40:38.108Z,9.80
2018-09-01T10:43:06.257Z,9.97
2018-09-01T10:45:34.377Z,8.10
2018-09-01T10:48:02.579Z,10.67
2018-09-01T10:50:30.816Z,9.23
2018-09-01T10:52:58.999Z,10.23
2018-09-01T10:55:27.167Z,11.33
2018-09-01T10:57:55.216Z,11.87
2018-09-01T11:00:23.364Z,9.43
2018-09-01T11:02:52.152Z,9.23
2018-09-01T11:05:20.720Z,10.10
2018-09-01T11:07:48.869Z,9.27
2018-09-01T11:10:17.512Z,9.83
2018-09-01T11:12:45.559Z,11.23
2018-09-01T11:15:13.608Z,12.83
2018-09-01T11:17:41.661Z,15.37
2018-09-01T11:20:09.895Z,13.27
2018-09-01T11:22:38.195Z,17.20
2018-09-01T11:25:06.479Z,19.03
2018-09-01T11:27:34.709Z,19.87
2018-09-01T11:30:02.700Z,20.67
2018-09-01T11:32:30.813Z,12.70
2018-09-01T11:34:58.859Z,14.83
2018-09-01T11:37:26.972Z,16.50
2018-09-01T11:39:55.056Z,12.47
2018-09-01T11:42:23.361Z,14.67
2018-09-01T11:44:51.383Z,13.70
2018-09-01T11:47:19.427Z,14.20
2018-09-01T11:49:49.592Z,17.90
2018-09-01T11:52:17.902Z,15.40
2018-09-01T11:54:45.981Z,14.57
2018-09-01T11:57:14.149Z,15.50
2018-09-01T11:59:42.289Z,14.00
2018-09-01T12:02:10.522Z,9.90
2018-09-01T12:04:38.730Z,10.10
2018-09-01T12:07:06.899Z,9.23
2018-09-01T12:09:35.263Z,14.80
2018-09-01T12:12:03.601Z,8.80
2018-09-01T12:14:31.938Z,13.40
2018-09-01T12:17:00.083Z,13.80
2018-09-01T12:19:28.175Z,10.13
2018-09-01T12:21:56.502Z,9.57
2018-09-01T12:24:24.897Z,9.03
2018-09-01T12:26:53.306Z,11.50
2018-09-01T12:29:21.365Z,21.40
2018-09-01T12:31:49.996Z,8.97
2018-09-01T12:34:18.464Z,6.97
2018-09-01T12:36:47.019Z,8.70
2018-09-01T12:39:15.689Z,6.07
2018-09-01T12:41:44.650Z,10.63
2018-09-01T12:44:13.320Z,7.53
2018-09-01T12:46:43.049Z,8.97
2018-09-01T12:49:11.858Z,13.97
2018-09-01T12:51:40.488Z,9.03
2018-09-01T12:54:09.192Z,10.77
2018-09-01T12:56:37.894Z,11.63
2018-09-01T12:59:06.725Z,8.03
2018-09-01T13:01:35.957Z,7.77
2018-09-01T13:04:04.700Z,14.20
2018-09-01T13:06:33.873Z,8.93
2018-09-01T13:09:02.738Z,6.70
2018-09-01T13:11:31.667Z,6.27
2018-09-01T13:14:00.377Z,7.33
2018-09-01T13:16:29.317Z,6.97
2018-09-01T13:18:58.105Z,7.83
2018-09-01T13:21:26.933Z,7.53
2018-09-01T13:23:55.757Z,10.07
2018-09-01T13:26:24.447Z,11.00
2018-09-01T13:28:52.507Z,9.37
2018-09-01T13:31:20.599Z,6.90
2018-09-01T13:33:48.690Z,11.50
2018-09-01T13:36:16.708Z,9.73
2018-09-01T13:38:44.728Z,8.87
2018-09-01T13:41:12.747Z,8.77
2018-09-01T13:43:40.786Z,9.03
2018-09-01T13:46:08.870Z,17.33
2018-09-01T13:48:36.855Z,8.43
2018-09-01T13:51:05.103Z,11.50
2018-09-01T13:53:33.140Z,10.20
2018-09-01T13:56:01.235Z,8.40
2018-09-01T13:58:29.315Z,15.70
2018-09-01T14:01:01.460Z,9.20
2018-09-01T14:03:29.495Z,13.67
2018-09-01T14:05:57.523Z,10.10
2018-09-01T14:08:25.559Z,13.50
2018-09-01T14:10:57.973Z,10.63
2018-09-01T14:13:26.019Z,10.23
2018-09-01T14:15:54.056Z,9.73
2018-09-01T14:18:22.211Z,14.63
2018-09-01T14:20:50.364Z,11.03
2018-09-01T14:23:18.438Z,13.00
2018-09-01T14:25:46.499Z,12.43
2018-09-01T14:28:14.539Z,9.33
2018-09-01T14:30:42.557Z,10.90
2018-09-01T14:33:10.691Z,11.30
2018-09-01T14:35:38.703Z,12.03
2018-09-01T14:38:06.742Z,10.53
2018-09-01T14:40:34.788Z,8.97
2018-09-01T14:43:02.808Z,9.80
2018-09-01T14:45:30.864Z,16.13
2018-09-01T14:47:58.889Z,13.37
2018-09-01T14:50:26.967Z,17.30
2018-09-01T14:52:57.296Z,11.70
2018-09-01T14:55:25.535Z,15.93
2018-09-01T14:57:53.571Z,14.03
2018-09-01T15:00:21.615Z,10.97
2018-09-01T15:02:49.646Z,12.73
2018-09-01T15:05:17.696Z,14.90
2018-09-01T15:07:45.705Z,14.93
2018-09-01T15:10:13.766Z,10.93
2018-09-01T15:12:41.794Z,13.87
2018-09-01T15:15:09.879Z,13.67
2018-09-01T15:17:37.911Z,13.73
2018-09-01T15:20:06.035Z,20.33
2018-09-01T15:22:34.064Z,17.10
2018-09-01T15:25:02.102Z,19.93
2018-09-01T15:27:30.119Z,17.73
2018-09-01T15:29:58.178Z,12.90
2018-09-01T15:32:26.236Z,12.60
2018-09-01T15:34:54.273Z,23.03
2018-09-01T15:37:22.345Z,14.77
2018-09-01T15:39:50.744Z,17.00
2018-09-01T15:42:18.811Z,19.60
2018-09-01T15:44:46.904Z,18.27
2018-09-01T15:47:14.905Z,22.13
2018-09-01T15:49:43.999Z,16.97
2018-09-01T15:52:12.010Z,16.20
2018-09-01T15:54:40.062Z,23.20
2018-09-01T15:57:08.076Z,17.60
2018-09-01T15:59:36.095Z,15.97
2018-09-01T16:02:04.122Z,13.43
2018-09-01T16:04:32.146Z,18.73
2018-09-01T16:07:00.178Z,21.57
2018-09-01T16:09:28.264Z,27.70
2018-09-01T16:11:56.584Z,27.03
2018-09-01T16:14:24.609Z,13.10
2018-09-01T16:16:52.772Z,26.17
2018-09-01T16:19:20.877Z,16.80
2018-09-01T16:21:48.955Z,14.13
2018-09-01T16:24:16.983Z,27.00
2018-09-01T16:26:45.084Z,21.13
2018-09-01T16:29:13.124Z,15.60
2018-09-01T16:31:41.161Z,32.67
2018-09-01T16:34:09.180Z,15.40
2018-09-01T16:36:37.337Z,18.30
2018-09-01T16:39:06.062Z,14.13
2018-09-01T16:41:34.378Z,17.63
2018-09-01T16:44:02.515Z,16.50
2018-09-01T16:46:30.644Z,18.90
2018-09-01T16:48:58.723Z,17.07
2018-09-01T16:51:26.849Z,20.57
2018-09-01T16:53:54.883Z,15.80
2018-09-01T16:56:23.041Z,17.40
2018-09-01T16:58:51.108Z,23.00
2018-09-01T17:01:20.242Z,22.00
2018-09-01T17:03:48.278Z,20.07
2018-09-01T17:06:16.309Z,22.13
2018-09-01T17:08:46.635Z,17.47
2018-09-01T17:11:14.772Z,19.43
2018-09-01T17:13:42.792Z,22.87
2018-09-01T17:16:10.828Z,24.07
2018-09-01T17:18:38.959Z,17.20
2018-09-01T17:21:07.075Z,13.20
2018-09-01T17:23:35.132Z,23.90
2018-09-01T17:26:03.205Z,24.83
2018-09-01T17:28:31.399Z,17.47
2018-09-01T17:30:59.698Z,24.20
2018-09-01T17:33:27.991Z,20.23
2018-09-01T17:35:56.032Z,26.40
2018-09-01T17:38:24.141Z,16.87
2018-09-01T17:40:52.286Z,18.67
2018-09-01T17:43:20.461Z,20.47
2018-09-01T17:45:48.926Z,20.63
2018-09-01T17:48:21.981Z,23.73
2018-09-01T17:50:52.087Z,18.00
2018-09-01T17:53:21.971Z,16.87
2018-09-01T17:55:49.970Z,16.60
2018-09-01T17:58:18.017Z,20.03
2018-09-01T18:00:46.428Z,18.90
2018-09-01T18:03:14.470Z,21.33
2018-09-01T18:05:42.472Z,26.33
2018-09-01T18:08:10.477Z,20.97
2018-09-01T18:10:41.415Z,22.90
2018-09-01T18:13:09.374Z,20.70
2018-09-01T18:15:37.393Z,17.53
2018-09-01T18:18:05.422Z,20.33
2018-09-01T18:20:33.454Z,22.37
2018-09-01T18:23:01.569Z,21.03
2018-09-01T18:25:29.467Z,15.03
2018-09-01T18:27:57.528Z,21.13
2018-09-01T18:30:29.999Z,20.77
2018-09-01T18:32:58.035Z,31.63
2018-09-01T18:35:26.198Z,22.33
2018-09-01T18:37:56.356Z,21.23
2018-09-01T18:40:26.408Z,24.30
2018-09-01T18:42:54.515Z,25.47
2018-09-01T18:45:22.544Z,26.80
2018-09-01T18:47:50.606Z,25.60
2018-09-01T18:50:18.660Z,35.37
2018-09-01T18:52:46.689Z,24.60
2018-09-01T18:55:14.961Z,21.83
2018-09-01T18:57:43.050Z,22.53
2018-09-01T19:00:11.088Z,19.03
2018-09-01T19:02:39.123Z,24.90
2018-09-01T19:05:09.059Z,26.70
2018-09-01T19:07:37.108Z,23.50
2018-09-01T19:10:05.176Z,20.00
2018-09-01T19:12:34.911Z,18.83
2018-09-01T19:15:02.948Z,33.67
2018-09-01T19:17:30.975Z,23.57
2018-09-01T19:19:59.038Z,31.33
2018-09-01T19:22:27.067Z,23.60
2018-09-01T19:24:55.097Z,26.27
2018-09-01T19:27:23.175Z,27.17
2018-09-01T19:29:51.182Z,42.47
2018-09-01T19:32:19.235Z,29.70
2018-09-01T19:34:47.307Z,41.33
2018-09-01T19:37:15.471Z,36.50
2018-09-01T19:39:43.486Z,35.43
2018-09-01T19:42:11.588Z,31.03
2018-09-01T19:44:39.658Z,19.27
2018-09-01T19:47:07.668Z,26.43
2018-09-01T19:49:36.783Z,31.63
2018-09-01T19:52:04.976Z,23.60
2018-09-01T19:54:32.985Z,26.50
2018-09-01T19:57:05.575Z,31.00
2018-09-01T19:59:33.603Z,27.67
2018-09-01T20:02:01.812Z,32.13
2018-09-01T20:04:29.853Z,34.10
2018-09-01T20:06:57.816Z,30.23
2018-09-01T20:09:25.828Z,35.00
2018-09-01T20:11:53.866Z,30.07
2018-09-01T20:14:21.842Z,31.03
2018-09-01T20:16:51.058Z,31.17
2018-09-01T20:19:19.038Z,38.83
2018-09-01T20:21:47.011Z,47.70
2018-09-01T20:24:15.003Z,40.80
2018-09-01T20:26:45.298Z,46.00
2018-09-01T20:29:13.291Z,36.10
2018-09-01T20:31:41.310Z,40.83
2018-09-01T20:34:09.339Z,37.20
2018-09-01T20:36:37.345Z,31.73
2018-09-01T20:39:05.882Z,43.27
2018-09-01T20:41:33.903Z,26.33
2018-09-01T20:44:01.923Z,39.77
2018-09-01T20:46:29.954Z,27.30
2018-09-01T20:48:57.969Z,27.50
2018-09-01T20:51:26.041Z,27.27
2018-09-01T20:53:54.041Z,33.60
2018-09-01T20:56:22.099Z,39.00
2018-09-01T20:58:50.142Z,35.37
2018-09-01T21:01:18.175Z,25.40
2018-09-01T21:03:46.214Z,30.97
2018-09-01T21:06:14.238Z,31.93
2018-09-01T21:08:42.282Z,29.30
2018-09-01T21:11:10.325Z,29.23
2018-09-01T21:13:38.361Z,28.43
2018-09-01T21:16:06.382Z,36.63
2018-09-01T21:18:34.427Z,33.60
2018-09-01T21:21:02.450Z,38.13
2018-09-01T21:23:30.492Z,45.93
2018-09-01T21:25:58.518Z,37.57
2018-09-01T21:28:26.534Z,31.63
2018-09-01T21:30:54.584Z,25.60
2018-09-01T21:33:22.614Z,27.17
2018-09-01T21:35:50.655Z,34.23
2018-09-01T21:38:18.682Z,29.77
2018-09-01T21:40:46.751Z,29.20
2018-09-01T21:43:14.787Z,30.00
2018-09-01T21:45:42.832Z,33.33
2018-09-01T21:48:10.854Z,32.63
2018-09-01T21:50:38.891Z,34.00
2018-09-01T21:53:06.922Z,29.87
2018-09-01T21:55:34.956Z,35.53
2018-09-01T21:58:02.978Z,43.23
2018-09-01T22:00:31.019Z,31.57
2018-09-01T22:02:59.048Z,42.83
2018-09-01T22:05:27.075Z,42.23
2018-09-01T22:07:55.091Z,40.30
2018-09-01T22:10:23.131Z,30.67
2018-09-01T22:12:51.153Z,34.70
2018-09-01T22:15:19.186Z,30.40
2018-09-01T22:17:47.212Z,28.40
2018-09-01T22:20:15.255Z,30.73
2018-09-01T22:22:43.278Z,31.23
2018-09-01T22:25:11.323Z,33.03
2018-09-01T22:27:39.349Z,27.13
2018-09-01T22:30:07.412Z,33.37
2018-09-01T22:32:35.433Z,29.20
2018-09-01T22:35:03.799Z,23.33
2018-09-01T22:37:31.832Z,23.50
2018-09-01T22:39:59.876Z,26.70
2018-09-01T22:42:27.906Z,20.93
2018-09-01T22:44:55.948Z,19.37
2018-09-01T22:47:27.026Z,20.43
2018-09-01T22:49:55.230Z,20.43
2018-09-01T22:52:23.382Z,17.77
2018-09-01T22:54:51.527Z,22.73
2018-09-01T22:57:20.015Z,17.70
2018-09-01T22:59:48.192Z,17.20
2018-09-01T23:02:16.290Z,16.63
2018-09-01T23:04:44.331Z,19.87
2018-09-01T23:07:12.599Z,22.13
2018-09-01T23:09:40.648Z,23.87
2018-09-01T23:12:08.688Z,16.33
2018-09-01T23:14:36.699Z,18.30
2018-09-01T23:17:04.747Z,20.27
2018-09-01T23:19:32.772Z,16.13
2018-09-01T23:22:00.811Z,20.03
2018-09-01T23:24:28.835Z,17.40
2018-09-01T23:26:56.885Z,18.77
2018-09-01T23:29:24.941Z,17.77
2018-09-01T23:31:52.983Z,17.23
2018-09-01T23:34:21.024Z,16.60
2018-09-01T23:36:49.060Z,17.00
2018-09-01T23:39:17.094Z,16.00
2018-09-01T23:41:45.140Z,18.40
2018-09-01T23:44:13.188Z,14.17
2018-09-01T23:46:41.240Z,17.40
2018-09-01T23:49:09.272Z,22.90
2018-09-01T23:51:37.328Z,21.60
2018-09-01T23:54:05.498Z,20.87
2018-09-01T23:56:33.552Z,20.37
2018-09-01T23:59:01.590Z,17.00
